sensor_id;sensor_type;location;lat;lon;timestamp;P1;durP1;ratioP1;P2;durP2;ratioP2
16153;SDS011;8182;55.648;13.208;2023-12-29T00:00:55;18.63;;;5.30;;
16153;SDS011;8182;55.648;13.208;2023-12-29T00:03:24;32.97;;;6.07;;
16153;SDS011;8182;55.648;13.208;2023-12-29T00:05:51;23.10;;;6.13;;
16153;SDS011;8182;55.648;13.208;2023-12-29T00:08:18;22.17;;;6.23;;
16153;SDS011;8182;55.648;13.208;2023-12-29T00:10:45;31.03;;;6.30;;
16153;SDS011;8182;55.648;13.208;2023-12-29T00:13:12;25.77;;;5.70;;
16153;SDS011;8182;55.648;13.208;2023-12-29T00:15:39;22.97;;;5.83;;
16153;SDS011;8182;55.648;13.208;2023-12-29T00:18:07;24.43;;;5.97;;
16153;SDS011;8182;55.648;13.208;2023-12-29T00:20:35;23.30;;;5.83;;
16153;SDS011;8182;55.648;13.208;2023-12-29T00:23:03;25.47;;;5.53;;
16153;SDS011;8182;55.648;13.208;2023-12-29T00:25:30;24.07;;;5.47;;
16153;SDS011;8182;55.648;13.208;2023-12-29T00:27:57;21.07;;;5.63;;
16153;SDS011;8182;55.648;13.208;2023-12-29T00:30:24;19.37;;;5.20;;
16153;SDS011;8182;55.648;13.208;2023-12-29T00:32:51;20.70;;;5.50;;
16153;SDS011;8182;55.648;13.208;2023-12-29T00:35:18;20.37;;;5.40;;
16153;SDS011;8182;55.648;13.208;2023-12-29T00:37:46;23.50;;;5.20;;
16153;SDS011;8182;55.648;13.208;2023-12-29T00:40:13;19.90;;;4.93;;
16153;SDS011;8182;55.648;13.208;2023-12-29T00:42:40;17.30;;;5.23;;
16153;SDS011;8182;55.648;13.208;2023-12-29T00:45:07;18.03;;;4.80;;
16153;SDS011;8182;55.648;13.208;2023-12-29T00:47:35;15.90;;;5.37;;
16153;SDS011;8182;55.648;13.208;2023-12-29T00:50:02;13.73;;;4.90;;
16153;SDS011;8182;55.648;13.208;2023-12-29T00:52:30;21.63;;;4.60;;
16153;SDS011;8182;55.648;13.208;2023-12-29T00:54:59;19.77;;;5.33;;
16153;SDS011;8182;55.648;13.208;2023-12-29T00:57:26;21.07;;;5.40;;
16153;SDS011;8182;55.648;13.208;2023-12-29T00:59:52;26.00;;;5.80;;
16153;SDS011;8182;55.648;13.208;2023-12-29T01:02:19;18.70;;;5.20;;
16153;SDS011;8182;55.648;13.208;2023-12-29T01:04:47;19.10;;;5.87;;
16153;SDS011;8182;55.648;13.208;2023-12-29T01:07:13;25.13;;;6.13;;
16153;SDS011;8182;55.648;13.208;2023-12-29T01:09:40;19.50;;;5.57;;
16153;SDS011;8182;55.648;13.208;2023-12-29T01:12:09;15.60;;;5.03;;
16153;SDS011;8182;55.648;13.208;2023-12-29T01:14:36;22.33;;;5.13;;
16153;SDS011;8182;55.648;13.208;2023-12-29T01:17:03;22.10;;;5.70;;
16153;SDS011;8182;55.648;13.208;2023-12-29T01:19:30;22.73;;;5.43;;
16153;SDS011;8182;55.648;13.208;2023-12-29T01:21:57;17.67;;;5.17;;
16153;SDS011;8182;55.648;13.208;2023-12-29T01:24:24;24.63;;;5.20;;
16153;SDS011;8182;55.648;13.208;2023-12-29T01:26:51;19.20;;;4.63;;
16153;SDS011;8182;55.648;13.208;2023-12-29T01:29:19;15.07;;;4.30;;
16153;SDS011;8182;55.648;13.208;2023-12-29T01:31:46;18.27;;;4.63;;
16153;SDS011;8182;55.648;13.208;2023-12-29T01:34:13;14.57;;;4.03;;
16153;SDS011;8182;55.648;13.208;2023-12-29T01:36:40;12.03;;;3.67;;
16153;SDS011;8182;55.648;13.208;2023-12-29T01:39:07;15.40;;;3.70;;
16153;SDS011;8182;55.648;13.208;2023-12-29T01:41:34;9.10;;;2.37;;
16153;SDS011;8182;55.648;13.208;2023-12-29T01:44:21;7.93;;;2.37;;
16153;SDS011;8182;55.648;13.208;2023-12-29T01:46:50;6.80;;;1.47;;
16153;SDS011;8182;55.648;13.208;2023-12-29T01:49:17;4.87;;;1.50;;
16153;SDS011;8182;55.648;13.208;2023-12-29T01:51:47;5.07;;;1.30;;
16153;SDS011;8182;55.648;13.208;2023-12-29T01:54:17;5.20;;;1.80;;
16153;SDS011;8182;55.648;13.208;2023-12-29T01:56:45;4.53;;;1.50;;
16153;SDS011;8182;55.648;13.208;2023-12-29T01:59:15;5.37;;;1.60;;
16153;SDS011;8182;55.648;13.208;2023-12-29T02:01:43;6.23;;;1.67;;
16153;SDS011;8182;55.648;13.208;2023-12-29T02:04:11;6.73;;;1.80;;
16153;SDS011;8182;55.648;13.208;2023-12-29T02:06:39;4.63;;;1.83;;
16153;SDS011;8182;55.648;13.208;2023-12-29T02:09:06;5.30;;;1.90;;
16153;SDS011;8182;55.648;13.208;2023-12-29T02:11:35;5.73;;;1.60;;
16153;SDS011;8182;55.648;13.208;2023-12-29T02:14:02;6.83;;;1.90;;
16153;SDS011;8182;55.648;13.208;2023-12-29T02:16:30;7.07;;;1.93;;
16153;SDS011;8182;55.648;13.208;2023-12-29T02:19:04;8.20;;;2.00;;
16153;SDS011;8182;55.648;13.208;2023-12-29T02:21:40;4.87;;;1.80;;
16153;SDS011;8182;55.648;13.208;2023-12-29T02:24:07;6.43;;;1.90;;
16153;SDS011;8182;55.648;13.208;2023-12-29T02:26:36;9.90;;;2.17;;
16153;SDS011;8182;55.648;13.208;2023-12-29T02:29:04;5.53;;;1.93;;
16153;SDS011;8182;55.648;13.208;2023-12-29T02:31:36;7.83;;;1.70;;
16153;SDS011;8182;55.648;13.208;2023-12-29T02:34:08;9.33;;;2.30;;
16153;SDS011;8182;55.648;13.208;2023-12-29T02:36:37;8.03;;;2.00;;
16153;SDS011;8182;55.648;13.208;2023-12-29T02:39:07;10.53;;;2.27;;
16153;SDS011;8182;55.648;13.208;2023-12-29T02:41:37;8.57;;;2.00;;
16153;SDS011;8182;55.648;13.208;2023-12-29T02:44:03;8.50;;;1.90;;
16153;SDS011;8182;55.648;13.208;2023-12-29T02:46:30;8.77;;;1.73;;
16153;SDS011;8182;55.648;13.208;2023-12-29T02:48:57;6.63;;;2.00;;
16153;SDS011;8182;55.648;13.208;2023-12-29T02:51:25;8.33;;;2.27;;
16153;SDS011;8182;55.648;13.208;2023-12-29T02:53:52;8.73;;;2.10;;
16153;SDS011;8182;55.648;13.208;2023-12-29T02:56:19;6.63;;;1.90;;
16153;SDS011;8182;55.648;13.208;2023-12-29T02:58:48;7.73;;;1.90;;
16153;SDS011;8182;55.648;13.208;2023-12-29T03:01:16;7.30;;;2.10;;
16153;SDS011;8182;55.648;13.208;2023-12-29T03:03:43;10.37;;;2.00;;
16153;SDS011;8182;55.648;13.208;2023-12-29T03:06:10;6.77;;;1.87;;
16153;SDS011;8182;55.648;13.208;2023-12-29T03:08:37;8.77;;;2.03;;
16153;SDS011;8182;55.648;13.208;2023-12-29T03:11:04;6.33;;;2.00;;
16153;SDS011;8182;55.648;13.208;2023-12-29T03:13:31;5.90;;;1.83;;
16153;SDS011;8182;55.648;13.208;2023-12-29T03:16:00;10.00;;;2.00;;
16153;SDS011;8182;55.648;13.208;2023-12-29T03:18:27;8.43;;;2.00;;
16153;SDS011;8182;55.648;13.208;2023-12-29T03:20:54;6.60;;;1.87;;
16153;SDS011;8182;55.648;13.208;2023-12-29T03:23:21;11.50;;;2.37;;
16153;SDS011;8182;55.648;13.208;2023-12-29T03:25:48;11.17;;;2.20;;
16153;SDS011;8182;55.648;13.208;2023-12-29T03:28:15;8.50;;;2.13;;
16153;SDS011;8182;55.648;13.208;2023-12-29T03:30:42;7.97;;;1.87;;
16153;SDS011;8182;55.648;13.208;2023-12-29T03:33:10;13.07;;;2.07;;
16153;SDS011;8182;55.648;13.208;2023-12-29T03:35:37;7.33;;;1.93;;
16153;SDS011;8182;55.648;13.208;2023-12-29T03:38:04;10.67;;;2.40;;
16153;SDS011;8182;55.648;13.208;2023-12-29T03:40:31;8.20;;;1.87;;
16153;SDS011;8182;55.648;13.208;2023-12-29T03:42:58;12.13;;;2.30;;
16153;SDS011;8182;55.648;13.208;2023-12-29T03:45:25;9.03;;;2.10;;
16153;SDS011;8182;55.648;13.208;2023-12-29T03:47:52;9.87;;;2.23;;
16153;SDS011;8182;55.648;13.208;2023-12-29T03:50:20;6.17;;;1.90;;
16153;SDS011;8182;55.648;13.208;2023-12-29T03:52:47;4.93;;;1.77;;
16153;SDS011;8182;55.648;13.208;2023-12-29T03:55:16;5.77;;;1.70;;
16153;SDS011;8182;55.648;13.208;2023-12-29T03:57:43;10.23;;;2.10;;
16153;SDS011;8182;55.648;13.208;2023-12-29T04:00:11;9.97;;;2.17;;
16153;SDS011;8182;55.648;13.208;2023-12-29T04:02:39;8.20;;;2.10;;
16153;SDS011;8182;55.648;13.208;2023-12-29T04:05:07;6.93;;;2.13;;
16153;SDS011;8182;55.648;13.208;2023-12-29T04:07:36;8.23;;;2.00;;
16153;SDS011;8182;55.648;13.208;2023-12-29T04:10:05;9.23;;;2.20;;
16153;SDS011;8182;55.648;13.208;2023-12-29T04:12:33;10.53;;;2.33;;
16153;SDS011;8182;55.648;13.208;2023-12-29T04:15:00;8.17;;;1.90;;
16153;SDS011;8182;55.648;13.208;2023-12-29T04:17:27;11.93;;;2.13;;
16153;SDS011;8182;55.648;13.208;2023-12-29T04:19:54;10.27;;;2.07;;
16153;SDS011;8182;55.648;13.208;2023-12-29T04:22:22;6.30;;;2.00;;
16153;SDS011;8182;55.648;13.208;2023-12-29T04:24:52;9.80;;;2.10;;
16153;SDS011;8182;55.648;13.208;2023-12-29T04:27:19;12.67;;;2.33;;
16153;SDS011;8182;55.648;13.208;2023-12-29T04:29:46;7.10;;;1.90;;
16153;SDS011;8182;55.648;13.208;2023-12-29T04:32:14;6.90;;;1.67;;
16153;SDS011;8182;55.648;13.208;2023-12-29T04:34:41;15.37;;;2.23;;
16153;SDS011;8182;55.648;13.208;2023-12-29T04:37:07;8.50;;;1.73;;
16153;SDS011;8182;55.648;13.208;2023-12-29T04:39:34;7.80;;;2.10;;
16153;SDS011;8182;55.648;13.208;2023-12-29T04:42:03;13.27;;;2.23;;
16153;SDS011;8182;55.648;13.208;2023-12-29T04:44:30;11.20;;;1.60;;
16153;SDS011;8182;55.648;13.208;2023-12-29T04:46:57;11.70;;;2.20;;
16153;SDS011;8182;55.648;13.208;2023-12-29T04:49:24;8.83;;;2.30;;
16153;SDS011;8182;55.648;13.208;2023-12-29T04:51:51;9.73;;;1.73;;
16153;SDS011;8182;55.648;13.208;2023-12-29T04:54:18;4.97;;;1.60;;
16153;SDS011;8182;55.648;13.208;2023-12-29T04:56:45;8.30;;;2.00;;
16153;SDS011;8182;55.648;13.208;2023-12-29T04:59:14;10.50;;;1.80;;
16153;SDS011;8182;55.648;13.208;2023-12-29T05:01:41;3.93;;;1.70;;
16153;SDS011;8182;55.648;13.208;2023-12-29T05:04:08;9.60;;;1.73;;
16153;SDS011;8182;55.648;13.208;2023-12-29T05:06:35;6.80;;;1.97;;
16153;SDS011;8182;55.648;13.208;2023-12-29T05:09:02;6.50;;;1.63;;
16153;SDS011;8182;55.648;13.208;2023-12-29T05:11:29;7.00;;;1.70;;
16153;SDS011;8182;55.648;13.208;2023-12-29T05:13:57;4.57;;;1.70;;
16153;SDS011;8182;55.648;13.208;2023-12-29T05:16:26;4.60;;;1.50;;
16153;SDS011;8182;55.648;13.208;2023-12-29T05:18:53;6.83;;;1.80;;
16153;SDS011;8182;55.648;13.208;2023-12-29T05:21:20;5.37;;;2.00;;
16153;SDS011;8182;55.648;13.208;2023-12-29T05:23:49;4.20;;;1.60;;
16153;SDS011;8182;55.648;13.208;2023-12-29T05:26:16;5.83;;;1.67;;
16153;SDS011;8182;55.648;13.208;2023-12-29T05:28:43;8.30;;;1.60;;
16153;SDS011;8182;55.648;13.208;2023-12-29T05:31:10;7.60;;;1.60;;
16153;SDS011;8182;55.648;13.208;2023-12-29T05:33:39;6.73;;;1.90;;
16153;SDS011;8182;55.648;13.208;2023-12-29T05:36:06;6.67;;;1.87;;
16153;SDS011;8182;55.648;13.208;2023-12-29T05:38:34;5.40;;;1.73;;
16153;SDS011;8182;55.648;13.208;2023-12-29T05:41:02;4.57;;;1.50;;
16153;SDS011;8182;55.648;13.208;2023-12-29T05:43:30;5.13;;;1.47;;
16153;SDS011;8182;55.648;13.208;2023-12-29T05:45:57;5.90;;;1.60;;
16153;SDS011;8182;55.648;13.208;2023-12-29T05:48:24;5.80;;;1.50;;
16153;SDS011;8182;55.648;13.208;2023-12-29T05:50:56;4.20;;;1.70;;
16153;SDS011;8182;55.648;13.208;2023-12-29T05:53:23;5.50;;;1.70;;
16153;SDS011;8182;55.648;13.208;2023-12-29T05:55:50;5.60;;;1.90;;
16153;SDS011;8182;55.648;13.208;2023-12-29T05:58:17;8.43;;;2.40;;
16153;SDS011;8182;55.648;13.208;2023-12-29T06:00:44;6.43;;;2.50;;
16153;SDS011;8182;55.648;13.208;2023-12-29T06:03:11;11.37;;;2.83;;
16153;SDS011;8182;55.648;13.208;2023-12-29T06:05:39;10.63;;;3.10;;
16153;SDS011;8182;55.648;13.208;2023-12-29T06:08:07;13.17;;;3.17;;
16153;SDS011;8182;55.648;13.208;2023-12-29T06:10:35;12.87;;;3.40;;
16153;SDS011;8182;55.648;13.208;2023-12-29T06:13:02;21.83;;;3.70;;
16153;SDS011;8182;55.648;13.208;2023-12-29T06:15:30;12.00;;;3.33;;
16153;SDS011;8182;55.648;13.208;2023-12-29T06:17:57;7.60;;;2.80;;
16153;SDS011;8182;55.648;13.208;2023-12-29T06:20:24;15.17;;;3.17;;
16153;SDS011;8182;55.648;13.208;2023-12-29T06:22:54;7.17;;;2.90;;
16153;SDS011;8182;55.648;13.208;2023-12-29T06:25:23;12.13;;;3.10;;
16153;SDS011;8182;55.648;13.208;2023-12-29T06:27:50;11.70;;;3.13;;
16153;SDS011;8182;55.648;13.208;2023-12-29T06:30:17;11.70;;;3.07;;
16153;SDS011;8182;55.648;13.208;2023-12-29T06:32:45;15.77;;;3.60;;
16153;SDS011;8182;55.648;13.208;2023-12-29T06:35:12;11.70;;;2.90;;
16153;SDS011;8182;55.648;13.208;2023-12-29T06:37:39;15.77;;;3.30;;
16153;SDS011;8182;55.648;13.208;2023-12-29T06:40:07;15.50;;;3.63;;
16153;SDS011;8182;55.648;13.208;2023-12-29T06:42:36;12.77;;;3.00;;
16153;SDS011;8182;55.648;13.208;2023-12-29T06:45:04;13.03;;;3.37;;
16153;SDS011;8182;55.648;13.208;2023-12-29T06:47:33;13.60;;;3.80;;
16153;SDS011;8182;55.648;13.208;2023-12-29T06:50:00;19.10;;;4.40;;
16153;SDS011;8182;55.648;13.208;2023-12-29T06:52:28;17.90;;;4.87;;
16153;SDS011;8182;55.648;13.208;2023-12-29T06:54:58;19.40;;;4.70;;
16153;SDS011;8182;55.648;13.208;2023-12-29T06:57:26;18.27;;;4.57;;
16153;SDS011;8182;55.648;13.208;2023-12-29T06:59:55;21.07;;;4.40;;
16153;SDS011;8182;55.648;13.208;2023-12-29T07:02:22;23.03;;;4.50;;
16153;SDS011;8182;55.648;13.208;2023-12-29T07:04:50;21.83;;;4.40;;
16153;SDS011;8182;55.648;13.208;2023-12-29T07:07:17;23.93;;;4.53;;
16153;SDS011;8182;55.648;13.208;2023-12-29T07:09:44;17.13;;;3.87;;
16153;SDS011;8182;55.648;13.208;2023-12-29T07:12:11;21.60;;;4.57;;
16153;SDS011;8182;55.648;13.208;2023-12-29T07:14:38;17.83;;;4.10;;
16153;SDS011;8182;55.648;13.208;2023-12-29T07:17:08;19.20;;;3.97;;
16153;SDS011;8182;55.648;13.208;2023-12-29T07:19:36;19.90;;;4.33;;
16153;SDS011;8182;55.648;13.208;2023-12-29T07:22:03;21.93;;;3.57;;
16153;SDS011;8182;55.648;13.208;2023-12-29T07:24:32;23.30;;;4.07;;
16153;SDS011;8182;55.648;13.208;2023-12-29T07:27:00;14.47;;;3.50;;
16153;SDS011;8182;55.648;13.208;2023-12-29T07:29:27;16.13;;;3.77;;
16153;SDS011;8182;55.648;13.208;2023-12-29T07:31:54;17.80;;;3.93;;
16153;SDS011;8182;55.648;13.208;2023-12-29T07:34:22;25.40;;;4.03;;
16153;SDS011;8182;55.648;13.208;2023-12-29T07:36:50;16.13;;;3.87;;
16153;SDS011;8182;55.648;13.208;2023-12-29T07:39:17;22.30;;;4.40;;
16153;SDS011;8182;55.648;13.208;2023-12-29T07:41:44;22.17;;;4.07;;
16153;SDS011;8182;55.648;13.208;2023-12-29T07:44:13;24.73;;;4.27;;
16153;SDS011;8182;55.648;13.208;2023-12-29T07:46:40;23.03;;;4.33;;
16153;SDS011;8182;55.648;13.208;2023-12-29T07:49:06;26.27;;;4.20;;
16153;SDS011;8182;55.648;13.208;2023-12-29T07:51:38;25.03;;;4.30;;
16153;SDS011;8182;55.648;13.208;2023-12-29T07:54:05;27.20;;;5.07;;
16153;SDS011;8182;55.648;13.208;2023-12-29T07:56:32;21.57;;;4.27;;
16153;SDS011;8182;55.648;13.208;2023-12-29T07:59:01;20.93;;;3.77;;
16153;SDS011;8182;55.648;13.208;2023-12-29T08:01:28;18.67;;;4.23;;
16153;SDS011;8182;55.648;13.208;2023-12-29T08:03:55;19.97;;;3.53;;
16153;SDS011;8182;55.648;13.208;2023-12-29T08:06:22;22.07;;;4.57;;
16153;SDS011;8182;55.648;13.208;2023-12-29T08:08:51;23.33;;;4.73;;
16153;SDS011;8182;55.648;13.208;2023-12-29T08:11:18;15.07;;;3.77;;
16153;SDS011;8182;55.648;13.208;2023-12-29T08:13:46;23.67;;;4.10;;
16153;SDS011;8182;55.648;13.208;2023-12-29T08:16:14;22.93;;;4.40;;
16153;SDS011;8182;55.648;13.208;2023-12-29T08:18:42;23.20;;;4.87;;
16153;SDS011;8182;55.648;13.208;2023-12-29T08:21:17;22.07;;;4.33;;
16153;SDS011;8182;55.648;13.208;2023-12-29T08:23:45;23.77;;;4.60;;
16153;SDS011;8182;55.648;13.208;2023-12-29T08:26:14;23.37;;;4.40;;
16153;SDS011;8182;55.648;13.208;2023-12-29T08:28:41;16.53;;;4.30;;
16153;SDS011;8182;55.648;13.208;2023-12-29T08:31:10;21.80;;;4.10;;
16153;SDS011;8182;55.648;13.208;2023-12-29T08:33:37;16.83;;;3.93;;
16153;SDS011;8182;55.648;13.208;2023-12-29T08:36:04;22.27;;;4.53;;
16153;SDS011;8182;55.648;13.208;2023-12-29T08:38:32;21.23;;;4.17;;
16153;SDS011;8182;55.648;13.208;2023-12-29T08:40:59;24.33;;;4.47;;
16153;SDS011;8182;55.648;13.208;2023-12-29T08:43:29;22.67;;;4.63;;
16153;SDS011;8182;55.648;13.208;2023-12-29T08:45:56;22.13;;;4.20;;
16153;SDS011;8182;55.648;13.208;2023-12-29T08:48:23;23.83;;;4.40;;
16153;SDS011;8182;55.648;13.208;2023-12-29T08:50:50;22.93;;;3.70;;
16153;SDS011;8182;55.648;13.208;2023-12-29T08:53:17;22.70;;;4.33;;
16153;SDS011;8182;55.648;13.208;2023-12-29T08:55:44;23.13;;;4.73;;
16153;SDS011;8182;55.648;13.208;2023-12-29T08:58:11;26.33;;;4.97;;
16153;SDS011;8182;55.648;13.208;2023-12-29T09:00:40;18.97;;;4.17;;
16153;SDS011;8182;55.648;13.208;2023-12-29T09:03:07;24.17;;;4.77;;
16153;SDS011;8182;55.648;13.208;2023-12-29T09:05:35;25.90;;;3.77;;
16153;SDS011;8182;55.648;13.208;2023-12-29T09:08:02;23.23;;;5.23;;
16153;SDS011;8182;55.648;13.208;2023-12-29T09:10:30;25.87;;;4.50;;
16153;SDS011;8182;55.648;13.208;2023-12-29T09:12:57;18.97;;;4.57;;
16153;SDS011;8182;55.648;13.208;2023-12-29T09:15:25;20.67;;;4.50;;
16153;SDS011;8182;55.648;13.208;2023-12-29T09:17:54;21.13;;;4.00;;
16153;SDS011;8182;55.648;13.208;2023-12-29T09:20:21;27.47;;;4.80;;
16153;SDS011;8182;55.648;13.208;2023-12-29T09:22:48;30.90;;;4.50;;
16153;SDS011;8182;55.648;13.208;2023-12-29T09:25:15;21.20;;;4.53;;
16153;SDS011;8182;55.648;13.208;2023-12-29T09:27:42;20.70;;;4.47;;
16153;SDS011;8182;55.648;13.208;2023-12-29T09:30:10;26.53;;;4.40;;
16153;SDS011;8182;55.648;13.208;2023-12-29T09:32:38;19.67;;;3.77;;
16153;SDS011;8182;55.648;13.208;2023-12-29T09:35:06;26.60;;;3.87;;
16153;SDS011;8182;55.648;13.208;2023-12-29T09:37:33;23.10;;;4.57;;
16153;SDS011;8182;55.648;13.208;2023-12-29T09:40:00;29.40;;;5.00;;
16153;SDS011;8182;55.648;13.208;2023-12-29T09:42:28;32.50;;;5.70;;
16153;SDS011;8182;55.648;13.208;2023-12-29T09:44:57;26.13;;;5.20;;
16153;SDS011;8182;55.648;13.208;2023-12-29T09:47:29;27.93;;;5.13;;
16153;SDS011;8182;55.648;13.208;2023-12-29T09:49:57;24.47;;;4.37;;
16153;SDS011;8182;55.648;13.208;2023-12-29T09:52:26;30.30;;;5.40;;
16153;SDS011;8182;55.648;13.208;2023-12-29T09:54:53;27.03;;;5.00;;
16153;SDS011;8182;55.648;13.208;2023-12-29T09:57:21;26.00;;;5.30;;
16153;SDS011;8182;55.648;13.208;2023-12-29T09:59:48;27.63;;;5.10;;
16153;SDS011;8182;55.648;13.208;2023-12-29T10:02:17;28.87;;;5.77;;
16153;SDS011;8182;55.648;13.208;2023-12-29T10:04:47;29.47;;;5.50;;
16153;SDS011;8182;55.648;13.208;2023-12-29T10:07:15;27.10;;;5.27;;
16153;SDS011;8182;55.648;13.208;2023-12-29T10:09:51;28.50;;;5.20;;
16153;SDS011;8182;55.648;13.208;2023-12-29T10:12:19;24.20;;;4.57;;
16153;SDS011;8182;55.648;13.208;2023-12-29T10:14:48;30.50;;;5.40;;
16153;SDS011;8182;55.648;13.208;2023-12-29T10:17:24;25.97;;;5.33;;
16153;SDS011;8182;55.648;13.208;2023-12-29T10:19:58;32.03;;;6.63;;
16153;SDS011;8182;55.648;13.208;2023-12-29T10:22:44;36.53;;;6.23;;
16153;SDS011;8182;55.648;13.208;2023-12-29T10:25:19;29.70;;;5.97;;
16153;SDS011;8182;55.648;13.208;2023-12-29T10:27:47;29.17;;;6.67;;
16153;SDS011;8182;55.648;13.208;2023-12-29T10:30:14;23.23;;;4.47;;
16153;SDS011;8182;55.648;13.208;2023-12-29T10:32:41;22.13;;;4.57;;
16153;SDS011;8182;55.648;13.208;2023-12-29T10:35:08;25.80;;;5.70;;
16153;SDS011;8182;55.648;13.208;2023-12-29T10:37:36;30.37;;;5.90;;
16153;SDS011;8182;55.648;13.208;2023-12-29T10:40:04;22.87;;;4.83;;
16153;SDS011;8182;55.648;13.208;2023-12-29T10:42:34;22.87;;;4.27;;
16153;SDS011;8182;55.648;13.208;2023-12-29T10:45:04;25.83;;;4.50;;
16153;SDS011;8182;55.648;13.208;2023-12-29T10:47:32;27.67;;;5.23;;
16153;SDS011;8182;55.648;13.208;2023-12-29T10:50:00;24.97;;;4.80;;
16153;SDS011;8182;55.648;13.208;2023-12-29T10:52:29;21.23;;;4.80;;
16153;SDS011;8182;55.648;13.208;2023-12-29T10:55:04;20.47;;;4.73;;
16153;SDS011;8182;55.648;13.208;2023-12-29T10:57:34;24.53;;;4.43;;
16153;SDS011;8182;55.648;13.208;2023-12-29T11:00:01;20.03;;;5.20;;
16153;SDS011;8182;55.648;13.208;2023-12-29T11:02:30;21.40;;;4.20;;
16153;SDS011;8182;55.648;13.208;2023-12-29T11:05:02;25.07;;;5.17;;
16153;SDS011;8182;55.648;13.208;2023-12-29T11:07:34;23.03;;;4.50;;
16153;SDS011;8182;55.648;13.208;2023-12-29T11:10:02;19.53;;;4.33;;
16153;SDS011;8182;55.648;13.208;2023-12-29T11:12:32;20.40;;;4.40;;
16153;SDS011;8182;55.648;13.208;2023-12-29T11:15:01;26.23;;;4.40;;
16153;SDS011;8182;55.648;13.208;2023-12-29T11:17:30;26.17;;;4.90;;
16153;SDS011;8182;55.648;13.208;2023-12-29T11:19:59;19.13;;;4.17;;
16153;SDS011;8182;55.648;13.208;2023-12-29T11:22:28;15.70;;;3.90;;
16153;SDS011;8182;55.648;13.208;2023-12-29T11:24:56;19.73;;;3.93;;
16153;SDS011;8182;55.648;13.208;2023-12-29T11:27:25;22.27;;;4.50;;
16153;SDS011;8182;55.648;13.208;2023-12-29T11:29:56;21.03;;;4.50;;
16153;SDS011;8182;55.648;13.208;2023-12-29T11:32:26;16.80;;;3.80;;
16153;SDS011;8182;55.648;13.208;2023-12-29T11:35:02;21.20;;;4.40;;
16153;SDS011;8182;55.648;13.208;2023-12-29T11:37:40;18.97;;;4.23;;
16153;SDS011;8182;55.648;13.208;2023-12-29T11:40:25;23.80;;;4.07;;
16153;SDS011;8182;55.648;13.208;2023-12-29T11:42:57;19.30;;;3.80;;
16153;SDS011;8182;55.648;13.208;2023-12-29T11:45:30;27.50;;;5.33;;
16153;SDS011;8182;55.648;13.208;2023-12-29T11:48:00;22.37;;;4.40;;
16153;SDS011;8182;55.648;13.208;2023-12-29T11:50:28;22.93;;;4.00;;
16153;SDS011;8182;55.648;13.208;2023-12-29T11:52:57;27.80;;;5.23;;
16153;SDS011;8182;55.648;13.208;2023-12-29T11:55:27;23.97;;;4.77;;
16153;SDS011;8182;55.648;13.208;2023-12-29T11:57:56;30.27;;;5.17;;
16153;SDS011;8182;55.648;13.208;2023-12-29T12:00:44;28.77;;;5.53;;
16153;SDS011;8182;55.648;13.208;2023-12-29T12:03:15;27.77;;;5.47;;
16153;SDS011;8182;55.648;13.208;2023-12-29T12:05:44;22.27;;;5.20;;
16153;SDS011;8182;55.648;13.208;2023-12-29T12:08:26;23.40;;;5.30;;
16153;SDS011;8182;55.648;13.208;2023-12-29T12:10:54;24.60;;;6.40;;
16153;SDS011;8182;55.648;13.208;2023-12-29T12:19:11;25.07;;;5.20;;
16153;SDS011;8182;55.648;13.208;2023-12-29T12:21:40;28.20;;;4.87;;
16153;SDS011;8182;55.648;13.208;2023-12-29T12:24:07;25.13;;;4.37;;
16153;SDS011;8182;55.648;13.208;2023-12-29T12:26:34;28.90;;;5.90;;
16153;SDS011;8182;55.648;13.208;2023-12-29T12:29:01;26.67;;;4.40;;
16153;SDS011;8182;55.648;13.208;2023-12-29T12:31:29;22.53;;;5.30;;
16153;SDS011;8182;55.648;13.208;2023-12-29T12:33:56;26.83;;;6.07;;
16153;SDS011;8182;55.648;13.208;2023-12-29T12:36:27;29.87;;;6.50;;
16153;SDS011;8182;55.648;13.208;2023-12-29T12:38:54;21.20;;;4.50;;
16153;SDS011;8182;55.648;13.208;2023-12-29T12:41:23;26.27;;;6.07;;
16153;SDS011;8182;55.648;13.208;2023-12-29T12:43:53;25.70;;;5.07;;
16153;SDS011;8182;55.648;13.208;2023-12-29T12:46:29;20.53;;;5.37;;
16153;SDS011;8182;55.648;13.208;2023-12-29T12:49:00;27.50;;;5.60;;
16153;SDS011;8182;55.648;13.208;2023-12-29T12:51:29;24.33;;;5.07;;
16153;SDS011;8182;55.648;13.208;2023-12-29T12:53:57;25.20;;;4.97;;
16153;SDS011;8182;55.648;13.208;2023-12-29T12:56:24;17.53;;;4.33;;
16153;SDS011;8182;55.648;13.208;2023-12-29T12:58:52;27.23;;;6.57;;
16153;SDS011;8182;55.648;13.208;2023-12-29T13:01:21;32.53;;;5.20;;
16153;SDS011;8182;55.648;13.208;2023-12-29T13:03:48;33.43;;;5.40;;
16153;SDS011;8182;55.648;13.208;2023-12-29T13:06:15;29.37;;;5.20;;
16153;SDS011;8182;55.648;13.208;2023-12-29T13:08:44;22.60;;;4.60;;
16153;SDS011;8182;55.648;13.208;2023-12-29T13:11:11;30.43;;;5.57;;
16153;SDS011;8182;55.648;13.208;2023-12-29T13:13:39;27.03;;;5.10;;
16153;SDS011;8182;55.648;13.208;2023-12-29T13:16:08;27.33;;;5.80;;
16153;SDS011;8182;55.648;13.208;2023-12-29T13:18:35;30.37;;;5.57;;
16153;SDS011;8182;55.648;13.208;2023-12-29T13:21:02;27.57;;;5.13;;
16153;SDS011;8182;55.648;13.208;2023-12-29T13:23:30;33.77;;;5.17;;
16153;SDS011;8182;55.648;13.208;2023-12-29T13:25:59;31.80;;;5.00;;
16153;SDS011;8182;55.648;13.208;2023-12-29T13:28:28;30.93;;;5.07;;
16153;SDS011;8182;55.648;13.208;2023-12-29T13:30:57;30.03;;;5.07;;
16153;SDS011;8182;55.648;13.208;2023-12-29T13:33:28;25.47;;;4.73;;
16153;SDS011;8182;55.648;13.208;2023-12-29T13:36:03;24.57;;;5.43;;
16153;SDS011;8182;55.648;13.208;2023-12-29T13:38:36;28.83;;;4.97;;
16153;SDS011;8182;55.648;13.208;2023-12-29T13:41:13;17.67;;;4.40;;
16153;SDS011;8182;55.648;13.208;2023-12-29T13:43:43;27.80;;;4.70;;
16153;SDS011;8182;55.648;13.208;2023-12-29T13:46:11;17.07;;;4.30;;
16153;SDS011;8182;55.648;13.208;2023-12-29T13:48:39;20.13;;;4.43;;
16153;SDS011;8182;55.648;13.208;2023-12-29T13:51:08;19.87;;;4.53;;
16153;SDS011;8182;55.648;13.208;2023-12-29T13:53:35;21.83;;;4.47;;
16153;SDS011;8182;55.648;13.208;2023-12-29T13:56:06;21.87;;;4.60;;
16153;SDS011;8182;55.648;13.208;2023-12-29T13:58:34;24.77;;;4.77;;
16153;SDS011;8182;55.648;13.208;2023-12-29T14:01:03;26.70;;;4.50;;
16153;SDS011;8182;55.648;13.208;2023-12-29T14:03:39;19.20;;;4.00;;
16153;SDS011;8182;55.648;13.208;2023-12-29T14:06:11;21.03;;;4.33;;
16153;SDS011;8182;55.648;13.208;2023-12-29T14:08:46;22.75;;;4.18;;
16153;SDS011;8182;55.648;13.208;2023-12-29T14:11:13;23.17;;;4.77;;
16153;SDS011;8182;55.648;13.208;2023-12-29T14:13:42;23.43;;;4.50;;
16153;SDS011;8182;55.648;13.208;2023-12-29T14:16:10;23.33;;;4.17;;
16153;SDS011;8182;55.648;13.208;2023-12-29T14:18:49;24.23;;;4.70;;
16153;SDS011;8182;55.648;13.208;2023-12-29T14:21:23;24.57;;;4.77;;
16153;SDS011;8182;55.648;13.208;2023-12-29T14:24:06;24.53;;;4.37;;
16153;SDS011;8182;55.648;13.208;2023-12-29T14:26:35;27.53;;;5.40;;
16153;SDS011;8182;55.648;13.208;2023-12-29T14:29:04;25.83;;;4.47;;
16153;SDS011;8182;55.648;13.208;2023-12-29T14:31:37;27.83;;;5.47;;
16153;SDS011;8182;55.648;13.208;2023-12-29T14:34:05;19.10;;;4.30;;
16153;SDS011;8182;55.648;13.208;2023-12-29T14:36:33;27.00;;;5.23;;
16153;SDS011;8182;55.648;13.208;2023-12-29T14:39:01;23.23;;;3.80;;
16153;SDS011;8182;55.648;13.208;2023-12-29T14:41:28;17.10;;;3.80;;
16153;SDS011;8182;55.648;13.208;2023-12-29T14:49:08;29.47;;;4.80;;
16153;SDS011;8182;55.648;13.208;2023-12-29T14:51:35;28.03;;;5.27;;
16153;SDS011;8182;55.648;13.208;2023-12-29T14:54:02;26.73;;;4.30;;
16153;SDS011;8182;55.648;13.208;2023-12-29T14:56:29;25.20;;;5.07;;